Baltic Freedom — 9HA3690 — position and weather

sailwx.info

Track history (hours):
 
Tides and Currents Weather Stations Pressure Air Temp Water Temp Dewpoint Dewpoint Depression Visibility Wind Speed Wind Dir Waves Ship Positions

Baltic Freedom

Last reported at 2017-Oct-20 05:54 UTC. Time now 2017-Oct-20 07:20 UTC.
Position N 35°57' E 014°50'.

Length 182 m; draft 11.1 m.

Type: Ship. MMSI: 229881000.

Date/timePositionNaut miles runAvg speedWind from/ knotsBaromVisibWave heightAir tempDewpointWater temp
2017-Oct-20 05:54N 35°57' E 014°50'0 0.0
2017-Oct-20 05:24N 35°57' E 014°50'0 0.0
2017-Oct-20 05:00N 35°57' E 014°50'0 0.0
2017-Oct-20 04:05N 35°57' E 014°50'0 0.1
2017-Oct-20 03:59N 35°57' E 014°50'0 0.0
2017-Oct-20 03:20N 35°57' E 014°50'0 0.0
2017-Oct-20 02:50N 35°57' E 014°50'0 0.0
2017-Oct-20 01:55N 35°57' E 014°50'0 0.0
2017-Oct-20 01:28N 35°57' E 014°50'0 0.1
2017-Oct-20 00:55N 35°57' E 014°50'0 0.0
2017-Oct-20 00:28N 35°57' E 014°50'0 0.0
2017-Oct-19 23:58N 35°57' E 014°50'0 0.0
2017-Oct-19 23:30N 35°57' E 014°50'0 0.0
2017-Oct-19 23:00N 35°57' E 014°50'0 0.0
2017-Oct-19 21:21N 35°57' E 014°50'1 0.3
2017-Oct-19 18:38N 35°57' E 014°49'0 0.1
2017-Oct-19 18:23N 35°57' E 014°49'0 0.0
2017-Oct-19 17:53N 35°58' E 014°49'0 0.0
2017-Oct-19 17:19N 35°58' E 014°49'0 0.0
2017-Oct-19 16:43N 35°58' E 014°49'0 0.0
2017-Oct-19 16:25N 35°58' E 014°49'0 0.0
2017-Oct-19 15:58N 35°58' E 014°49'0 0.0
2017-Oct-19 15:28N 35°58' E 014°49'0 0.0
2017-Oct-19 14:54N 35°58' E 014°49'0 0.0
2017-Oct-19 09:10N 35°58' E 014°49'0 0.0
2017-Oct-19 08:58N 35°58' E 014°49'0 0.0
2017-Oct-19 07:45N 35°58' E 014°49'0 0.0
2017-Oct-19 07:27N 35°58' E 014°49'0 0.0
2017-Oct-19 07:00N 35°58' E 014°49'0 0.0
2017-Oct-19 05:50N 35°58' E 014°49'0 0.0
2017-Oct-19 03:07N 35°58' E 014°49'0 0.0
2017-Oct-19 00:06N 35°58' E 014°49'0 0.1
2017-Oct-18 23:48N 35°58' E 014°49'0 0.0
2017-Oct-18 23:18N 35°58' E 014°49'0 0.0
2017-Oct-18 22:59N 35°58' E 014°49'0 0.0
2017-Oct-18 22:29N 35°58' E 014°49'0 0.0
2017-Oct-18 21:56N 35°58' E 014°49'0 0.0
2017-Oct-18 21:29N 35°58' E 014°49'0 0.0
2017-Oct-18 19:58N 35°58' E 014°49'0 0.1
2017-Oct-18 19:28N 35°58' E 014°49'0 0.1
2017-Oct-18 18:58N 35°58' E 014°49'0 0.1
2017-Oct-18 18:28N 35°57' E 014°49'0 0.1
2017-Oct-18 18:00N 35°57' E 014°50'0 0.0
2017-Oct-18 17:30N 35°57' E 014°50'0 0.1
2017-Oct-18 17:00N 35°57' E 014°50'0 0.1
2017-Oct-18 16:27N 35°57' E 014°49'0 0.1
2017-Oct-18 15:59N 35°57' E 014°50'0 0.9
2017-Oct-18 15:30N 35°57' E 014°50'2 3.0
2017-Oct-18 14:57N 35°57' E 014°52'0 0.3
2017-Oct-18 13:54N 35°57' E 014°52'0 0.0
2017-Oct-18 13:09N 35°57' E 014°52'0 0.1
2017-Oct-18 12:50N 35°57' E 014°52'0 0.0
2017-Oct-18 12:29N 35°57' E 014°52'0 0.0
2017-Oct-18 11:59N 35°57' E 014°52'0 0.0
2017-Oct-18 11:29N 35°57' E 014°52'0 0.0
2017-Oct-18 10:47N 35°57' E 014°52'0 0.0
2017-Oct-18 10:28N 35°57' E 014°52'0 0.0
2017-Oct-18 09:34N 35°57' E 014°52'0 0.0
2017-Oct-18 09:22N 35°57' E 014°52'0 0.0
2017-Oct-18 08:43N 35°57' E 014°52'0 0.0
2017-Oct-18 08:25N 35°57' E 014°52'0 0.1
2017-Oct-18 08:00N 35°57' E 014°52'0 0.2
2017-Oct-18 07:30N 35°57' E 014°52'0 0.1
2017-Oct-18 07:00N 35°57' E 014°52'0 0.1
2017-Oct-18 06:16N 35°57' E 014°52'0 0.1
2017-Oct-18 05:56N 35°57' E 014°52'0 0.3
2017-Oct-18 05:30N 35°57' E 014°52'1 2.4
2017-Oct-18 05:00N 35°57' E 014°51'0 0.1
2017-Oct-18 03:59N 35°57' E 014°51'0 0.1
2017-Oct-18 03:26N 35°57' E 014°51'0 0.1
2017-Oct-18 02:59N 35°57' E 014°51'0 0.0
2017-Oct-18 02:28N 35°57' E 014°51'0 0.0
2017-Oct-18 01:58N 35°57' E 014°51'0 0.0
2017-Oct-18 01:22N 35°57' E 014°51'0 0.1
2017-Oct-18 00:58N 35°57' E 014°51'0 0.1
2017-Oct-18 00:28N 35°57' E 014°51'0 0.4
2017-Oct-17 23:58N 35°57' E 014°51'3 4.7
2017-Oct-17 23:21N 35°59' E 014°48'2 5.7
2017-Oct-17 23:00N 35°60' E 014°46'2 3.1
2017-Oct-17 22:31N 36°01' E 014°44'0 0.4
2017-Oct-17 22:00N 36°01' E 014°45'0 0.4
2017-Oct-17 21:30N 36°01' E 014°45'1 1.3
2017-Oct-17 20:59N 36°02' E 014°46'710.1
2017-Oct-17 20:20N 36°02' E 014°54'513.8
2017-Oct-17 20:00N 36°01' E 014°59'713.8
2017-Oct-17 19:30N 35°60' E 015°08'9013.9
2017-Oct-17 13:01N 35°57' E 016°59'313.9
2017-Oct-17 12:49N 35°57' E 017°03'413.8
2017-Oct-17 12:30N 35°57' E 017°08'713.8
2017-Oct-17 12:00N 35°57' E 017°16'713.8
2017-Oct-17 11:30N 35°57' E 017°25'713.8
2017-Oct-17 11:00N 35°58' E 017°33'713.7
2017-Oct-17 10:30N 35°58' E 017°42'713.6
2017-Oct-17 10:00N 35°58' E 017°50'713.6
2017-Oct-17 09:30N 35°58' E 017°59'713.6
2017-Oct-17 09:00N 35°58' E 018°07'913.8
2017-Oct-17 08:21N 35°58' E 018°18'7414.0
2017-Oct-17 03:03N 35°59' E 019°50'114.3
2017-Oct-17 03:00N 35°59' E 019°51'2314.0
2017-Oct-17 01:19N 36°00' E 020°20'8914.2
2017-Oct-16 19:03N 36°02' E 022°10'114.1
2017-Oct-16 19:00N 36°02' E 022°11'29013.1
2017-Oct-15 20:52N 39°55' E 025°51'614.8
2017-Oct-15 20:29N 39°59' E 025°57'713.9
2017-Oct-15 19:57N 40°01' E 026°06'612.5
2017-Oct-15 19:29N 40°02' E 026°13'  
2017-Oct-13 15:23N 43°27' E 030°11'512.7
2017-Oct-13 15:00N 43°32' E 030°13'1112.3
2017-Oct-13 14:09N 43°42' E 030°18'212.3
2017-Oct-13 13:59N 43°43' E 030°19'3712.5
2017-Oct-13 11:04N 44°18' E 030°36'112.7
2017-Oct-13 11:00N 44°19' E 030°36'1012.7
2017-Oct-13 10:12N 44°28' E 030°41'412.7
2017-Oct-13 09:54N 44°32' E 030°42'512.6
2017-Oct-13 09:30N 44°37' E 030°45'8212.2
2017-Oct-13 02:47N 45°58' E 031°05'412.4
2017-Oct-13 02:29N 46°01' E 031°04'1511.5
2017-Oct-13 01:09N 46°15' E 030°54'312.2
2017-Oct-13 00:53N 46°18' E 030°53'512.4
2017-Oct-13 00:30N 46°22' E 030°51'612.2
2017-Oct-13 00:00N 46°28' E 030°49'3 6.4
2017-Oct-12 23:30N 46°30' E 030°45'1 1.9
2017-Oct-12 23:00N 46°31' E 030°44'0 0.0
2017-Oct-12 22:20N 46°31' E 030°44'0 0.0
2017-Oct-12 21:56N 46°31' E 030°44'0 0.0
2017-Oct-12 21:29N 46°31' E 030°44'0 0.0
2017-Oct-12 20:59N 46°31' E 030°44'0 0.0
2017-Oct-12 20:28N 46°31' E 030°44'0 0.0
2017-Oct-12 19:58N 46°31' E 030°44'0 0.0
2017-Oct-12 19:25N 46°31' E 030°44'0 0.0
2017-Oct-12 18:58N 46°31' E 030°44'0 0.0
2017-Oct-12 18:28N 46°31' E 030°44'0 0.0
2017-Oct-12 18:00N 46°31' E 030°44'0 0.0
2017-Oct-12 17:30N 46°31' E 030°44'0 0.0
2017-Oct-12 16:57N 46°31' E 030°44'0 0.0
2017-Oct-12 16:27N 46°31' E 030°44'0 0.0
2017-Oct-12 15:54N 46°31' E 030°44'0 0.0
2017-Oct-12 15:29N 46°31' E 030°44'0 0.0
2017-Oct-12 14:53N 46°31' E 030°44'0 0.0
2017-Oct-12 14:17N 46°31' E 030°44'0 0.0
2017-Oct-12 13:56N 46°31' E 030°44'0 0.0
2017-Oct-12 13:28N 46°31' E 030°44'0 0.0
2017-Oct-12 12:52N 46°31' E 030°44'0 0.0
2017-Oct-12 12:22N 46°31' E 030°44'0 0.0
2017-Oct-12 11:52N 46°31' E 030°44'0 0.0
2017-Oct-12 11:18N 46°31' E 030°44'0 0.0
2017-Oct-12 11:00N 46°31' E 030°44'0 0.0
2017-Oct-12 10:24N 46°31' E 030°44'0 0.0
2017-Oct-12 10:00N 46°31' E 030°44'0 0.0
2017-Oct-12 09:30N 46°31' E 030°44'0 0.0
2017-Oct-12 08:56N 46°31' E 030°44'0 0.0
2017-Oct-12 08:17N 46°31' E 030°44'0 0.0
2017-Oct-12 07:59N 46°31' E 030°44'0 0.0
2017-Oct-12 07:26N 46°31' E 030°44'0 0.0
2017-Oct-12 06:59N 46°31' E 030°44'0 0.0
2017-Oct-12 06:25N 46°31' E 030°44'0 0.0
2017-Oct-12 05:58N 46°31' E 030°44'0 0.0
2017-Oct-12 05:28N 46°31' E 030°44'0 0.0
2017-Oct-12 04:49N 46°31' E 030°44'0 0.0
2017-Oct-12 04:25N 46°31' E 030°44'0 0.0
2017-Oct-12 03:57N 46°31' E 030°44'0 0.0
2017-Oct-12 03:30N 46°31' E 030°44'0 0.0
2017-Oct-12 03:00N 46°31' E 030°44'0 0.0
2017-Oct-12 02:27N 46°31' E 030°44'0 0.0
2017-Oct-12 02:00N 46°31' E 030°44'0 0.0
2017-Oct-12 01:29N 46°31' E 030°44'0 0.0
2017-Oct-12 00:41N 46°31' E 030°44'0 0.0
2017-Oct-12 00:26N 46°31' E 030°44'0 0.0
2017-Oct-11 23:56N 46°31' E 030°44'0 0.0
2017-Oct-11 23:25N 46°31' E 030°44'0 0.0
2017-Oct-11 22:55N 46°31' E 030°44'0 0.0
2017-Oct-11 22:19N 46°31' E 030°44'0 0.0
2017-Oct-11 21:58N 46°31' E 030°44'0 0.0
2017-Oct-11 20:57N 46°31' E 030°44'0 0.0
2017-Oct-11 20:30N 46°31' E 030°44'0 0.0
2017-Oct-11 19:51N 46°31' E 030°44'0 0.0
2017-Oct-11 19:24N 46°31' E 030°44'0 0.0
2017-Oct-11 18:56N 46°31' E 030°44'0 0.0
2017-Oct-11 18:05N 46°31' E 030°44'0 0.0
2017-Oct-11 17:56N 46°31' E 030°44'0 0.0
2017-Oct-11 17:29N 46°31' E 030°44'0 0.0
2017-Oct-11 16:40N 46°31' E 030°44'0 0.0
2017-Oct-11 00:00N 46°31' E 030°44'0 0.0
2017-Oct-10 23:30N 46°31' E 030°44'0 0.0
2017-Oct-10 23:00N 46°31' E 030°44'0 0.0
2017-Oct-10 22:18N 46°31' E 030°44'0 0.0
2017-Oct-10 21:59N 46°31' E 030°44'0 0.0
2017-Oct-10 21:26N 46°31' E 030°44'0 0.0
2017-Oct-10 20:50N 46°31' E 030°44'0 0.0
2017-Oct-10 20:29N 46°31' E 030°44'0 0.0
2017-Oct-10 19:55N 46°31' E 030°44'0 0.0
2017-Oct-10 19:22N 46°31' E 030°44'0 0.0
2017-Oct-10 18:58N 46°31' E 030°44'0 0.0
2017-Oct-10 18:25N 46°31' E 030°44'0 0.0
2017-Oct-10 17:58N 46°31' E 030°44'0 0.0
2017-Oct-10 17:21N 46°31' E 030°44'0 0.0
2017-Oct-10 16:57N 46°31' E 030°44'0 0.0
2017-Oct-10 16:24N 46°31' E 030°44'0 0.0
2017-Oct-10 16:00N 46°31' E 030°44'0 0.0
2017-Oct-10 15:30N 46°31' E 030°44'0 0.0
2017-Oct-10 14:44N 46°31' E 030°44'0 0.0
2017-Oct-10 13:59N 46°31' E 030°44'0 0.0
2017-Oct-10 13:18N 46°31' E 030°44'0 0.0
2017-Oct-10 12:59N 46°31' E 030°44'0 0.0
2017-Oct-10 12:28N 46°31' E 030°44'0 0.0
2017-Oct-10 11:52N 46°31' E 030°44'0 0.0
2017-Oct-10 11:28N 46°31' E 030°44'0 0.0
2017-Oct-10 10:46N 46°31' E 030°44'0 0.0
2017-Oct-10 10:18N 46°31' E 030°44'0 0.0
2017-Oct-10 09:36N 46°31' E 030°44'0 0.0
2017-Oct-10 09:24N 46°31' E 030°44'0 0.0
2017-Oct-10 09:00N 46°31' E 030°44'0 0.0
2017-Oct-10 08:27N 46°31' E 030°44'0 0.0
2017-Oct-10 07:56N 46°31' E 030°44'0 0.0
2017-Oct-10 07:17N 46°31' E 030°44'0 0.0
2017-Oct-10 06:56N 46°31' E 030°44'0 0.0
2017-Oct-10 06:29N 46°31' E 030°44'0 0.0
2017-Oct-10 05:55N 46°31' E 030°44'  
Track history (hours):
 
Tides and Currents Weather Stations Pressure Air Temp Water Temp Dewpoint Dewpoint Depression Visibility Wind Speed Wind Dir Waves Ship Positions

Baltic Freedom

Last reported at 2017-Oct-20 05:54 UTC. Time now 2017-Oct-20 07:20 UTC.
Position N 35°57' E 014°50'.

Length 182 m; draft 11.1 m.

Type: Ship. MMSI: 229881000.

Date/timePositionNaut miles runAvg speedWind from/ knotsBaromVisibWave heightAir tempDewpointWater temp
2017-Oct-20 05:54N 35°57' E 014°50'0 0.0
2017-Oct-20 05:24N 35°57' E 014°50'0 0.0
2017-Oct-20 05:00N 35°57' E 014°50'0 0.0
2017-Oct-20 04:05N 35°57' E 014°50'0 0.1
2017-Oct-20 03:59N 35°57' E 014°50'0 0.0
2017-Oct-20 03:20N 35°57' E 014°50'0 0.0
2017-Oct-20 02:50N 35°57' E 014°50'0 0.0
2017-Oct-20 01:55N 35°57' E 014°50'0 0.0
2017-Oct-20 01:28N 35°57' E 014°50'0 0.1
2017-Oct-20 00:55N 35°57' E 014°50'0 0.0
2017-Oct-20 00:28N 35°57' E 014°50'0 0.0
2017-Oct-19 23:58N 35°57' E 014°50'0 0.0
2017-Oct-19 23:30N 35°57' E 014°50'0 0.0
2017-Oct-19 23:00N 35°57' E 014°50'0 0.0
2017-Oct-19 21:21N 35°57' E 014°50'1 0.3
2017-Oct-19 18:38N 35°57' E 014°49'0 0.1
2017-Oct-19 18:23N 35°57' E 014°49'0 0.0
2017-Oct-19 17:53N 35°58' E 014°49'0 0.0
2017-Oct-19 17:19N 35°58' E 014°49'0 0.0
2017-Oct-19 16:43N 35°58' E 014°49'0 0.0
2017-Oct-19 16:25N 35°58' E 014°49'0 0.0
2017-Oct-19 15:58N 35°58' E 014°49'0 0.0
2017-Oct-19 15:28N 35°58' E 014°49'0 0.0
2017-Oct-19 14:54N 35°58' E 014°49'0 0.0
2017-Oct-19 09:10N 35°58' E 014°49'0 0.0
2017-Oct-19 08:58N 35°58' E 014°49'0 0.0
2017-Oct-19 07:45N 35°58' E 014°49'0 0.0
2017-Oct-19 07:27N 35°58' E 014°49'0 0.0
2017-Oct-19 07:00N 35°58' E 014°49'0 0.0
2017-Oct-19 05:50N 35°58' E 014°49'0 0.0
2017-Oct-19 03:07N 35°58' E 014°49'0 0.0
2017-Oct-19 00:06N 35°58' E 014°49'0 0.1
2017-Oct-18 23:48N 35°58' E 014°49'0 0.0
2017-Oct-18 23:18N 35°58' E 014°49'0 0.0
2017-Oct-18 22:59N 35°58' E 014°49'0 0.0
2017-Oct-18 22:29N 35°58' E 014°49'0 0.0
2017-Oct-18 21:56N 35°58' E 014°49'0 0.0
2017-Oct-18 21:29N 35°58' E 014°49'0 0.0
2017-Oct-18 19:58N 35°58' E 014°49'0 0.1
2017-Oct-18 19:28N 35°58' E 014°49'0 0.1
2017-Oct-18 18:58N 35°58' E 014°49'0 0.1
2017-Oct-18 18:28N 35°57' E 014°49'0 0.1
2017-Oct-18 18:00N 35°57' E 014°50'0 0.0
2017-Oct-18 17:30N 35°57' E 014°50'0 0.1
2017-Oct-18 17:00N 35°57' E 014°50'0 0.1
2017-Oct-18 16:27N 35°57' E 014°49'0 0.1
2017-Oct-18 15:59N 35°57' E 014°50'0 0.9
2017-Oct-18 15:30N 35°57' E 014°50'2 3.0
2017-Oct-18 14:57N 35°57' E 014°52'0 0.3
2017-Oct-18 13:54N 35°57' E 014°52'0 0.0
2017-Oct-18 13:09N 35°57' E 014°52'0 0.1
2017-Oct-18 12:50N 35°57' E 014°52'0 0.0
2017-Oct-18 12:29N 35°57' E 014°52'0 0.0
2017-Oct-18 11:59N 35°57' E 014°52'0 0.0
2017-Oct-18 11:29N 35°57' E 014°52'0 0.0
2017-Oct-18 10:47N 35°57' E 014°52'0 0.0
2017-Oct-18 10:28N 35°57' E 014°52'0 0.0
2017-Oct-18 09:34N 35°57' E 014°52'0 0.0
2017-Oct-18 09:22N 35°57' E 014°52'0 0.0
2017-Oct-18 08:43N 35°57' E 014°52'0 0.0
2017-Oct-18 08:25N 35°57' E 014°52'0 0.1
2017-Oct-18 08:00N 35°57' E 014°52'0 0.2
2017-Oct-18 07:30N 35°57' E 014°52'0 0.1
2017-Oct-18 07:00N 35°57' E 014°52'0 0.1
2017-Oct-18 06:16N 35°57' E 014°52'0 0.1
2017-Oct-18 05:56N 35°57' E 014°52'0 0.3
2017-Oct-18 05:30N 35°57' E 014°52'1 2.4
2017-Oct-18 05:00N 35°57' E 014°51'0 0.1
2017-Oct-18 03:59N 35°57' E 014°51'0 0.1
2017-Oct-18 03:26N 35°57' E 014°51'0 0.1
2017-Oct-18 02:59N 35°57' E 014°51'0 0.0
2017-Oct-18 02:28N 35°57' E 014°51'0 0.0
2017-Oct-18 01:58N 35°57' E 014°51'0 0.0
2017-Oct-18 01:22N 35°57' E 014°51'0 0.1
2017-Oct-18 00:58N 35°57' E 014°51'0 0.1
2017-Oct-18 00:28N 35°57' E 014°51'0 0.4
2017-Oct-17 23:58N 35°57' E 014°51'3 4.7
2017-Oct-17 23:21N 35°59' E 014°48'2 5.7
2017-Oct-17 23:00N 35°60' E 014°46'2 3.1
2017-Oct-17 22:31N 36°01' E 014°44'0 0.4
2017-Oct-17 22:00N 36°01' E 014°45'0 0.4
2017-Oct-17 21:30N 36°01' E 014°45'1 1.3
2017-Oct-17 20:59N 36°02' E 014°46'710.1
2017-Oct-17 20:20N 36°02' E 014°54'513.8
2017-Oct-17 20:00N 36°01' E 014°59'713.8
2017-Oct-17 19:30N 35°60' E 015°08'9013.9
2017-Oct-17 13:01N 35°57' E 016°59'313.9
2017-Oct-17 12:49N 35°57' E 017°03'413.8
2017-Oct-17 12:30N 35°57' E 017°08'713.8
2017-Oct-17 12:00N 35°57' E 017°16'713.8
2017-Oct-17 11:30N 35°57' E 017°25'713.8
2017-Oct-17 11:00N 35°58' E 017°33'713.7
2017-Oct-17 10:30N 35°58' E 017°42'713.6
2017-Oct-17 10:00N 35°58' E 017°50'713.6
2017-Oct-17 09:30N 35°58' E 017°59'713.6
2017-Oct-17 09:00N 35°58' E 018°07'913.8
2017-Oct-17 08:21N 35°58' E 018°18'7414.0
2017-Oct-17 03:03N 35°59' E 019°50'114.3
2017-Oct-17 03:00N 35°59' E 019°51'2314.0
2017-Oct-17 01:19N 36°00' E 020°20'8914.2
2017-Oct-16 19:03N 36°02' E 022°10'114.1
2017-Oct-16 19:00N 36°02' E 022°11'29013.1
2017-Oct-15 20:52N 39°55' E 025°51'614.8
2017-Oct-15 20:29N 39°59' E 025°57'713.9
2017-Oct-15 19:57N 40°01' E 026°06'612.5
2017-Oct-15 19:29N 40°02' E 026°13'  
2017-Oct-13 15:23N 43°27' E 030°11'512.7
2017-Oct-13 15:00N 43°32' E 030°13'1112.3
2017-Oct-13 14:09N 43°42' E 030°18'212.3
2017-Oct-13 13:59N 43°43' E 030°19'3712.5
2017-Oct-13 11:04N 44°18' E 030°36'112.7
2017-Oct-13 11:00N 44°19' E 030°36'1012.7
2017-Oct-13 10:12N 44°28' E 030°41'412.7
2017-Oct-13 09:54N 44°32' E 030°42'512.6
2017-Oct-13 09:30N 44°37' E 030°45'8212.2
2017-Oct-13 02:47N 45°58' E 031°05'412.4
2017-Oct-13 02:29N 46°01' E 031°04'1511.5
2017-Oct-13 01:09N 46°15' E 030°54'312.2
2017-Oct-13 00:53N 46°18' E 030°53'512.4
2017-Oct-13 00:30N 46°22' E 030°51'612.2
2017-Oct-13 00:00N 46°28' E 030°49'3 6.4
2017-Oct-12 23:30N 46°30' E 030°45'1 1.9
2017-Oct-12 23:00N 46°31' E 030°44'0 0.0
2017-Oct-12 22:20N 46°31' E 030°44'0 0.0
2017-Oct-12 21:56N 46°31' E 030°44'0 0.0
2017-Oct-12 21:29N 46°31' E 030°44'0 0.0
2017-Oct-12 20:59N 46°31' E 030°44'0 0.0
2017-Oct-12 20:28N 46°31' E 030°44'0 0.0
2017-Oct-12 19:58N 46°31' E 030°44'0 0.0
2017-Oct-12 19:25N 46°31' E 030°44'0 0.0
2017-Oct-12 18:58N 46°31' E 030°44'0 0.0
2017-Oct-12 18:28N 46°31' E 030°44'0 0.0
2017-Oct-12 18:00N 46°31' E 030°44'0 0.0
2017-Oct-12 17:30N 46°31' E 030°44'0 0.0
2017-Oct-12 16:57N 46°31' E 030°44'0 0.0
2017-Oct-12 16:27N 46°31' E 030°44'0 0.0
2017-Oct-12 15:54N 46°31' E 030°44'0 0.0
2017-Oct-12 15:29N 46°31' E 030°44'0 0.0
2017-Oct-12 14:53N 46°31' E 030°44'0 0.0
2017-Oct-12 14:17N 46°31' E 030°44'0 0.0
2017-Oct-12 13:56N 46°31' E 030°44'0 0.0
2017-Oct-12 13:28N 46°31' E 030°44'0 0.0
2017-Oct-12 12:52N 46°31' E 030°44'0 0.0
2017-Oct-12 12:22N 46°31' E 030°44'0 0.0
2017-Oct-12 11:52N 46°31' E 030°44'0 0.0
2017-Oct-12 11:18N 46°31' E 030°44'0 0.0
2017-Oct-12 11:00N 46°31' E 030°44'0 0.0
2017-Oct-12 10:24N 46°31' E 030°44'0 0.0
2017-Oct-12 10:00N 46°31' E 030°44'0 0.0
2017-Oct-12 09:30N 46°31' E 030°44'0 0.0
2017-Oct-12 08:56N 46°31' E 030°44'0 0.0
2017-Oct-12 08:17N 46°31' E 030°44'0 0.0
2017-Oct-12 07:59N 46°31' E 030°44'0 0.0
2017-Oct-12 07:26N 46°31' E 030°44'0 0.0
2017-Oct-12 06:59N 46°31' E 030°44'0 0.0
2017-Oct-12 06:25N 46°31' E 030°44'0 0.0
2017-Oct-12 05:58N 46°31' E 030°44'0 0.0
2017-Oct-12 05:28N 46°31' E 030°44'0 0.0
2017-Oct-12 04:49N 46°31' E 030°44'0 0.0
2017-Oct-12 04:25N 46°31' E 030°44'0 0.0
2017-Oct-12 03:57N 46°31' E 030°44'0 0.0
2017-Oct-12 03:30N 46°31' E 030°44'0 0.0
2017-Oct-12 03:00N 46°31' E 030°44'0 0.0
2017-Oct-12 02:27N 46°31' E 030°44'0 0.0
2017-Oct-12 02:00N 46°31' E 030°44'0 0.0
2017-Oct-12 01:29N 46°31' E 030°44'0 0.0
2017-Oct-12 00:41N 46°31' E 030°44'0 0.0
2017-Oct-12 00:26N 46°31' E 030°44'0 0.0
2017-Oct-11 23:56N 46°31' E 030°44'0 0.0
2017-Oct-11 23:25N 46°31' E 030°44'0 0.0
2017-Oct-11 22:55N 46°31' E 030°44'0 0.0
2017-Oct-11 22:19N 46°31' E 030°44'0 0.0
2017-Oct-11 21:58N 46°31' E 030°44'0 0.0
2017-Oct-11 20:57N 46°31' E 030°44'0 0.0
2017-Oct-11 20:30N 46°31' E 030°44'0 0.0
2017-Oct-11 19:51N 46°31' E 030°44'0 0.0
2017-Oct-11 19:24N 46°31' E 030°44'0 0.0
2017-Oct-11 18:56N 46°31' E 030°44'0 0.0
2017-Oct-11 18:05N 46°31' E 030°44'0 0.0
2017-Oct-11 17:56N 46°31' E 030°44'0 0.0
2017-Oct-11 17:29N 46°31' E 030°44'0 0.0
2017-Oct-11 16:40N 46°31' E 030°44'0 0.0
2017-Oct-11 00:00N 46°31' E 030°44'0 0.0
2017-Oct-10 23:30N 46°31' E 030°44'0 0.0
2017-Oct-10 23:00N 46°31' E 030°44'0 0.0
2017-Oct-10 22:18N 46°31' E 030°44'0 0.0
2017-Oct-10 21:59N 46°31' E 030°44'0 0.0
2017-Oct-10 21:26N 46°31' E 030°44'0 0.0
2017-Oct-10 20:50N 46°31' E 030°44'0 0.0
2017-Oct-10 20:29N 46°31' E 030°44'0 0.0
2017-Oct-10 19:55N 46°31' E 030°44'0 0.0
2017-Oct-10 19:22N 46°31' E 030°44'0 0.0
2017-Oct-10 18:58N 46°31' E 030°44'0 0.0
2017-Oct-10 18:25N 46°31' E 030°44'0 0.0
2017-Oct-10 17:58N 46°31' E 030°44'0 0.0
2017-Oct-10 17:21N 46°31' E 030°44'0 0.0
2017-Oct-10 16:57N 46°31' E 030°44'0 0.0
2017-Oct-10 16:24N 46°31' E 030°44'0 0.0
2017-Oct-10 16:00N 46°31' E 030°44'0 0.0
2017-Oct-10 15:30N 46°31' E 030°44'0 0.0
2017-Oct-10 14:44N 46°31' E 030°44'0 0.0
2017-Oct-10 13:59N 46°31' E 030°44'0 0.0
2017-Oct-10 13:18N 46°31' E 030°44'0 0.0
2017-Oct-10 12:59N 46°31' E 030°44'0 0.0
2017-Oct-10 12:28N 46°31' E 030°44'0 0.0
2017-Oct-10 11:52N 46°31' E 030°44'0 0.0
2017-Oct-10 11:28N 46°31' E 030°44'0 0.0
2017-Oct-10 10:46N 46°31' E 030°44'0 0.0
2017-Oct-10 10:18N 46°31' E 030°44'0 0.0
2017-Oct-10 09:36N 46°31' E 030°44'0 0.0
2017-Oct-10 09:24N 46°31' E 030°44'0 0.0
2017-Oct-10 09:00N 46°31' E 030°44'0 0.0
2017-Oct-10 08:27N 46°31' E 030°44'0 0.0
2017-Oct-10 07:56N 46°31' E 030°44'0 0.0
2017-Oct-10 07:17N 46°31' E 030°44'0 0.0
2017-Oct-10 06:56N 46°31' E 030°44'0 0.0
2017-Oct-10 06:29N 46°31' E 030°44'0 0.0
2017-Oct-10 05:55N 46°31' E 030°44'  

Dump ship's entire track history